Ikarus — SWEW — position and weather

sailwx.info

Track history (hours):
 
Tides and Currents Weather Stations Pressure Air Temp Water Temp Dewpoint Dewpoint Depression Visibility Wind Speed Wind Dir Waves Ship Positions

Ikarus

Last reported at 2014-Oct-30 22:33 UTC. Time now 2014-Oct-30 23:04 UTC.
Position N 43°35' E 010°18'.

Length 200 m; draft 6.7 m.

Type: Ship. MMSI: 239513000.

Date/timePositionNaut miles runAvg speedWind from/ knotsBaromVisibWave heightAir tempDewpointWater temp
2014-Oct-30 22:33N 43°35' E 010°18'1 1.5
2014-Oct-30 21:33N 43°33' E 010°18'1111.1
2014-Oct-30 20:34N 43°26' E 010°07'2019.6
2014-Oct-30 19:34N 43°16' E 009°43'2019.4
2014-Oct-30 18:32N 43°10' E 009°17'6219.7
2014-Oct-30 15:23N 42°49' E 007°57'14020.0
2014-Oct-30 08:25N 42°02' E 004°59'13419.4
2014-Oct-30 01:33N 41°18' E 002°10'9 1.5
2014-Oct-29 19:26N 41°09' E 002°06'1921.4
2014-Oct-29 18:33N 40°53' E 001°54'2121.0
2014-Oct-29 17:33N 40°34' E 001°42'2121.1
2014-Oct-29 16:33N 40°15' E 001°30'2120.9
2014-Oct-29 15:33N 39°56' E 001°17'13120.9
2014-Oct-29 09:16N 38°02' W 000°06'1620.0
2014-Oct-29 08:28N 37°49' W 000°18'1920.8
2014-Oct-29 07:33N 37°33' W 000°31'24320.0
2014-Oct-28 19:22N 35°59' W 005°11'16 1.7
2014-Oct-28 10:27N 35°56' W 005°30'1011.5
2014-Oct-28 09:33N 36°01' W 005°19'21914.1
2014-Oct-27 18:06N 37°14' W 001°02'915.4
2014-Oct-27 17:31N 37°20' W 000°53'1515.4
2014-Oct-27 16:34N 37°30' W 000°40'1515.3
2014-Oct-27 15:33N 37°42' W 000°27'1615.6
2014-Oct-27 14:31N 37°55' W 000°16'13117.9
2014-Oct-27 07:13N 39°48' E 001°08'4 4.2
2014-Oct-27 06:21N 39°45' E 001°06'1215.8
2014-Oct-27 05:33N 39°56' E 001°14'1615.6
2014-Oct-27 04:33N 40°10' E 001°23'1515.5
2014-Oct-27 03:33N 40°24' E 001°33'1515.5
2014-Oct-27 02:33N 40°37' E 001°43'1615.6
2014-Oct-27 01:33N 40°51' E 001°53'1615.7
2014-Oct-27 00:33N 41°05' E 002°02'1614.2
2014-Oct-26 23:28N 41°19' E 002°10'3 2.6
2014-Oct-26 22:25N 41°22' E 002°11'0 0.0
2014-Oct-26 21:28N 41°22' E 002°11'13 4.5
2014-Oct-26 18:28N 41°24' E 002°28'1717.7
2014-Oct-26 17:31N 41°30' E 002°49'1817.0
2014-Oct-26 16:28N 41°38' E 003°10'1717.9
2014-Oct-26 15:31N 41°45' E 003°31'1818.5
2014-Oct-26 14:33N 41°53' E 003°52'1817.7
2014-Oct-26 13:33N 42°01' E 004°14'2118.3
2014-Oct-26 12:23N 42°10' E 004°40'1818.0
2014-Oct-26 11:25N 42°17' E 005°02'1718.5
2014-Oct-26 10:29N 42°25' E 005°22'1918.2
2014-Oct-26 09:28N 42°33' E 005°45'4318.7
2014-Oct-26 07:11N 42°50' E 006°39'1319.2
2014-Oct-26 06:31N 42°53' E 006°55'9218.5
2014-Oct-26 01:33N 43°19' E 008°56'1918.6
2014-Oct-26 00:33N 43°24' E 009°21'1918.6
2014-Oct-25 23:33N 43°29' E 009°45'1918.7
2014-Oct-25 22:33N 43°30' E 010°11'7 7.0
2014-Oct-25 21:33N 43°35' E 010°18'0 0.0
2014-Oct-25 20:33N 43°35' E 010°18'0 0.0
2014-Oct-25 19:30N 43°35' E 010°18'0 0.0
2014-Oct-25 18:33N 43°35' E 010°18'0 0.0
2014-Oct-25 17:33N 43°35' E 010°18'0 0.0
2014-Oct-25 16:33N 43°35' E 010°18'0 0.0
2014-Oct-25 15:33N 43°35' E 010°18'0 0.0
2014-Oct-25 14:33N 43°35' E 010°18'0 0.0
2014-Oct-25 13:33N 43°35' E 010°18'0 0.0
2014-Oct-25 12:33N 43°35' E 010°18'0 0.0
2014-Oct-25 11:33N 43°35' E 010°18'0 0.0
2014-Oct-25 10:33N 43°35' E 010°18'0 0.0
2014-Oct-25 09:33N 43°35' E 010°18'0 0.0
2014-Oct-25 08:33N 43°35' E 010°18'0 0.0
2014-Oct-25 07:33N 43°35' E 010°18'0 0.0
2014-Oct-25 06:33N 43°35' E 010°18'0 0.0
2014-Oct-25 05:33N 43°35' E 010°18'0 0.0
2014-Oct-25 04:33N 43°35' E 010°18'0 0.0
2014-Oct-25 03:33N 43°35' E 010°18'0 0.0
2014-Oct-25 02:33N 43°35' E 010°18'0 0.0
2014-Oct-25 01:33N 43°35' E 010°18'0 0.0
2014-Oct-25 00:33N 43°35' E 010°18'0 0.0
2014-Oct-24 23:33N 43°35' E 010°18'0 0.0
2014-Oct-24 22:33N 43°35' E 010°18'0 0.0
2014-Oct-24 21:33N 43°35' E 010°18'0 0.0
2014-Oct-24 20:33N 43°35' E 010°18'0 0.0
2014-Oct-24 19:33N 43°35' E 010°18'0 0.0
2014-Oct-24 18:33N 43°35' E 010°18'0 0.0
2014-Oct-24 17:33N 43°35' E 010°18'0 0.0
2014-Oct-24 16:33N 43°35' E 010°18'0 0.0
2014-Oct-24 15:33N 43°35' E 010°18'0 0.0
2014-Oct-24 14:33N 43°35' E 010°18'0 0.0
2014-Oct-24 13:33N 43°35' E 010°18'0 0.0
2014-Oct-24 12:33N 43°35' E 010°18'0 0.0
2014-Oct-24 11:33N 43°35' E 010°18'0 0.0
2014-Oct-24 10:30N 43°35' E 010°18'0 0.0
2014-Oct-24 09:33N 43°35' E 010°18'0 0.0
2014-Oct-24 08:33N 43°35' E 010°18'0 0.0
2014-Oct-24 07:33N 43°35' E 010°18'0 0.0
2014-Oct-24 06:33N 43°35' E 010°18'0 0.0
2014-Oct-24 05:33N 43°35' E 010°18'0 0.0
2014-Oct-24 04:33N 43°35' E 010°18'0 0.0
2014-Oct-24 03:33N 43°35' E 010°18'0 0.0
2014-Oct-24 02:33N 43°35' E 010°18'0 0.0
2014-Oct-24 01:27N 43°35' E 010°18'0 0.0
2014-Oct-24 00:33N 43°35' E 010°18'0 0.0
2014-Oct-23 23:33N 43°35' E 010°18'0 0.0
2014-Oct-23 22:33N 43°35' E 010°18'1 0.5
2014-Oct-23 21:33N 43°34' E 010°18'7 7.3
2014-Oct-23 20:33N 43°30' E 010°10'1817.7
2014-Oct-23 19:33N 43°29' E 009°46'2120.9
2014-Oct-23 18:33N 43°24' E 009°18'2020.4
2014-Oct-23 17:33N 43°20' E 008°51'2420.4
2014-Oct-23 16:22N 43°14' E 008°18'3719.5
2014-Oct-23 14:27N 43°06' E 007°28'1819.7
2014-Oct-23 13:33N 43°02' E 007°05'2020.0
2014-Oct-23 12:33N 42°58' E 006°38'2219.7
2014-Oct-23 11:26N 42°55' E 006°08'4619.7
2014-Oct-23 09:07N 43°00' E 005°06'1119.1
2014-Oct-23 08:33N 43°03' E 004°52'2218.1
2014-Oct-23 07:20N 42°50' E 004°27'1617.7
2014-Oct-23 06:27N 42°39' E 004°11'12110.1
2014-Oct-22 18:27N 41°18' E 002°11'21920.1
2014-Oct-22 07:33N 38°04' W 000°04'2120.4
2014-Oct-22 06:33N 37°47' W 000°18'1919.5
2014-Oct-22 05:33N 37°32' W 000°33'1919.5
2014-Oct-22 04:33N 37°19' W 000°51'2020.2
2014-Oct-22 03:33N 37°06' W 001°11'20420.0
2014-Oct-21 17:23N 35°59' W 005°10'16 2.1
2014-Oct-21 09:30N 35°56' W 005°30'1313.5
2014-Oct-21 08:33N 36°02' W 005°16'  
Track history (hours):
 
Tides and Currents Weather Stations Pressure Air Temp Water Temp Dewpoint Dewpoint Depression Visibility Wind Speed Wind Dir Waves Ship Positions

Ikarus

Last reported at 2014-Oct-30 22:33 UTC. Time now 2014-Oct-30 23:04 UTC.
Position N 43°35' E 010°18'.

Length 200 m; draft 6.7 m.

Type: Ship. MMSI: 239513000.

Date/timePositionNaut miles runAvg speedWind from/ knotsBaromVisibWave heightAir tempDewpointWater temp
2014-Oct-30 22:33N 43°35' E 010°18'1 1.5
2014-Oct-30 21:33N 43°33' E 010°18'1111.1
2014-Oct-30 20:34N 43°26' E 010°07'2019.6
2014-Oct-30 19:34N 43°16' E 009°43'2019.4
2014-Oct-30 18:32N 43°10' E 009°17'6219.7
2014-Oct-30 15:23N 42°49' E 007°57'14020.0
2014-Oct-30 08:25N 42°02' E 004°59'13419.4
2014-Oct-30 01:33N 41°18' E 002°10'9 1.5
2014-Oct-29 19:26N 41°09' E 002°06'1921.4
2014-Oct-29 18:33N 40°53' E 001°54'2121.0
2014-Oct-29 17:33N 40°34' E 001°42'2121.1
2014-Oct-29 16:33N 40°15' E 001°30'2120.9
2014-Oct-29 15:33N 39°56' E 001°17'13120.9
2014-Oct-29 09:16N 38°02' W 000°06'1620.0
2014-Oct-29 08:28N 37°49' W 000°18'1920.8
2014-Oct-29 07:33N 37°33' W 000°31'24320.0
2014-Oct-28 19:22N 35°59' W 005°11'16 1.7
2014-Oct-28 10:27N 35°56' W 005°30'1011.5
2014-Oct-28 09:33N 36°01' W 005°19'21914.1
2014-Oct-27 18:06N 37°14' W 001°02'915.4
2014-Oct-27 17:31N 37°20' W 000°53'1515.4
2014-Oct-27 16:34N 37°30' W 000°40'1515.3
2014-Oct-27 15:33N 37°42' W 000°27'1615.6
2014-Oct-27 14:31N 37°55' W 000°16'13117.9
2014-Oct-27 07:13N 39°48' E 001°08'4 4.2
2014-Oct-27 06:21N 39°45' E 001°06'1215.8
2014-Oct-27 05:33N 39°56' E 001°14'1615.6
2014-Oct-27 04:33N 40°10' E 001°23'1515.5
2014-Oct-27 03:33N 40°24' E 001°33'1515.5
2014-Oct-27 02:33N 40°37' E 001°43'1615.6
2014-Oct-27 01:33N 40°51' E 001°53'1615.7
2014-Oct-27 00:33N 41°05' E 002°02'1614.2
2014-Oct-26 23:28N 41°19' E 002°10'3 2.6
2014-Oct-26 22:25N 41°22' E 002°11'0 0.0
2014-Oct-26 21:28N 41°22' E 002°11'13 4.5
2014-Oct-26 18:28N 41°24' E 002°28'1717.7
2014-Oct-26 17:31N 41°30' E 002°49'1817.0
2014-Oct-26 16:28N 41°38' E 003°10'1717.9
2014-Oct-26 15:31N 41°45' E 003°31'1818.5
2014-Oct-26 14:33N 41°53' E 003°52'1817.7
2014-Oct-26 13:33N 42°01' E 004°14'2118.3
2014-Oct-26 12:23N 42°10' E 004°40'1818.0
2014-Oct-26 11:25N 42°17' E 005°02'1718.5
2014-Oct-26 10:29N 42°25' E 005°22'1918.2
2014-Oct-26 09:28N 42°33' E 005°45'4318.7
2014-Oct-26 07:11N 42°50' E 006°39'1319.2
2014-Oct-26 06:31N 42°53' E 006°55'9218.5
2014-Oct-26 01:33N 43°19' E 008°56'1918.6
2014-Oct-26 00:33N 43°24' E 009°21'1918.6
2014-Oct-25 23:33N 43°29' E 009°45'1918.7
2014-Oct-25 22:33N 43°30' E 010°11'7 7.0
2014-Oct-25 21:33N 43°35' E 010°18'0 0.0
2014-Oct-25 20:33N 43°35' E 010°18'0 0.0
2014-Oct-25 19:30N 43°35' E 010°18'0 0.0
2014-Oct-25 18:33N 43°35' E 010°18'0 0.0
2014-Oct-25 17:33N 43°35' E 010°18'0 0.0
2014-Oct-25 16:33N 43°35' E 010°18'0 0.0
2014-Oct-25 15:33N 43°35' E 010°18'0 0.0
2014-Oct-25 14:33N 43°35' E 010°18'0 0.0
2014-Oct-25 13:33N 43°35' E 010°18'0 0.0
2014-Oct-25 12:33N 43°35' E 010°18'0 0.0
2014-Oct-25 11:33N 43°35' E 010°18'0 0.0
2014-Oct-25 10:33N 43°35' E 010°18'0 0.0
2014-Oct-25 09:33N 43°35' E 010°18'0 0.0
2014-Oct-25 08:33N 43°35' E 010°18'0 0.0
2014-Oct-25 07:33N 43°35' E 010°18'0 0.0
2014-Oct-25 06:33N 43°35' E 010°18'0 0.0
2014-Oct-25 05:33N 43°35' E 010°18'0 0.0
2014-Oct-25 04:33N 43°35' E 010°18'0 0.0
2014-Oct-25 03:33N 43°35' E 010°18'0 0.0
2014-Oct-25 02:33N 43°35' E 010°18'0 0.0
2014-Oct-25 01:33N 43°35' E 010°18'0 0.0
2014-Oct-25 00:33N 43°35' E 010°18'0 0.0
2014-Oct-24 23:33N 43°35' E 010°18'0 0.0
2014-Oct-24 22:33N 43°35' E 010°18'0 0.0
2014-Oct-24 21:33N 43°35' E 010°18'0 0.0
2014-Oct-24 20:33N 43°35' E 010°18'0 0.0
2014-Oct-24 19:33N 43°35' E 010°18'0 0.0
2014-Oct-24 18:33N 43°35' E 010°18'0 0.0
2014-Oct-24 17:33N 43°35' E 010°18'0 0.0
2014-Oct-24 16:33N 43°35' E 010°18'0 0.0
2014-Oct-24 15:33N 43°35' E 010°18'0 0.0
2014-Oct-24 14:33N 43°35' E 010°18'0 0.0
2014-Oct-24 13:33N 43°35' E 010°18'0 0.0
2014-Oct-24 12:33N 43°35' E 010°18'0 0.0
2014-Oct-24 11:33N 43°35' E 010°18'0 0.0
2014-Oct-24 10:30N 43°35' E 010°18'0 0.0
2014-Oct-24 09:33N 43°35' E 010°18'0 0.0
2014-Oct-24 08:33N 43°35' E 010°18'0 0.0
2014-Oct-24 07:33N 43°35' E 010°18'0 0.0
2014-Oct-24 06:33N 43°35' E 010°18'0 0.0
2014-Oct-24 05:33N 43°35' E 010°18'0 0.0
2014-Oct-24 04:33N 43°35' E 010°18'0 0.0
2014-Oct-24 03:33N 43°35' E 010°18'0 0.0
2014-Oct-24 02:33N 43°35' E 010°18'0 0.0
2014-Oct-24 01:27N 43°35' E 010°18'0 0.0
2014-Oct-24 00:33N 43°35' E 010°18'0 0.0
2014-Oct-23 23:33N 43°35' E 010°18'0 0.0
2014-Oct-23 22:33N 43°35' E 010°18'1 0.5
2014-Oct-23 21:33N 43°34' E 010°18'7 7.3
2014-Oct-23 20:33N 43°30' E 010°10'1817.7
2014-Oct-23 19:33N 43°29' E 009°46'2120.9
2014-Oct-23 18:33N 43°24' E 009°18'2020.4
2014-Oct-23 17:33N 43°20' E 008°51'2420.4
2014-Oct-23 16:22N 43°14' E 008°18'3719.5
2014-Oct-23 14:27N 43°06' E 007°28'1819.7
2014-Oct-23 13:33N 43°02' E 007°05'2020.0
2014-Oct-23 12:33N 42°58' E 006°38'2219.7
2014-Oct-23 11:26N 42°55' E 006°08'4619.7
2014-Oct-23 09:07N 43°00' E 005°06'1119.1
2014-Oct-23 08:33N 43°03' E 004°52'2218.1
2014-Oct-23 07:20N 42°50' E 004°27'1617.7
2014-Oct-23 06:27N 42°39' E 004°11'12110.1
2014-Oct-22 18:27N 41°18' E 002°11'21920.1
2014-Oct-22 07:33N 38°04' W 000°04'2120.4
2014-Oct-22 06:33N 37°47' W 000°18'1919.5
2014-Oct-22 05:33N 37°32' W 000°33'1919.5
2014-Oct-22 04:33N 37°19' W 000°51'2020.2
2014-Oct-22 03:33N 37°06' W 001°11'20420.0
2014-Oct-21 17:23N 35°59' W 005°10'16 2.1
2014-Oct-21 09:30N 35°56' W 005°30'1313.5
2014-Oct-21 08:33N 36°02' W 005°16'  

Dump ship's entire track history